MiSS Kayla — WDF5910 — position and weather

sailwx.info

Track history (hours):
 
Tides and Currents Weather Stations Pressure Air Temp Water Temp Dewpoint Dewpoint Depression Visibility Wind Speed Wind Dir Waves Ship Positions

MiSS Kayla

Owner: Crosby Marine Transportation LLC, Golden Meadow, LA. More information available from US FCC via Universal Licensing System and Coast Guard Vessel Documentation Center.

Last reported at 2018-Feb-18 19:30 UTC. Time now 2018-Feb-19 00:12 UTC.
Position N 29°46' W 095°05'.

Length 20 m; draft 8 m.

Type: Towing. MMSI: 367468580.

Date/timePositionNaut miles runAvg speedWind from/ knotsBaromVisibWave heightAir tempDewpointWater temp
2018-Feb-18 19:30N 29°46' W 095°05'4 1.4
2018-Feb-18 16:27N 29°44' W 095°09'0 0.0
2018-Feb-18 15:59N 29°44' W 095°09'0 0.0
2018-Feb-18 04:10N 29°44' W 095°10'0 0.1
2018-Feb-18 03:41N 29°44' W 095°10'1 0.1
2018-Feb-17 22:48N 29°44' W 095°09'4 2.2
2018-Feb-17 21:03N 29°46' W 095°05'0 4.3
2018-Feb-17 20:59N 29°46' W 095°05'2 4.8
2018-Feb-17 20:29N 29°44' W 095°07'2 0.2
2018-Feb-17 08:16N 29°44' W 095°10'0 0.0
2018-Feb-17 07:51N 29°44' W 095°10'5 0.8
2018-Feb-17 01:41N 29°46' W 095°05'1 1.0
2018-Feb-17 01:09N 29°46' W 095°05'1 5.0
2018-Feb-17 00:58N 29°45' W 095°06'2 0.1
2018-Feb-16 10:40N 29°47' W 095°05'5 2.5
2018-Feb-16 08:41N 29°44' W 095°09'0 0.0
2018-Feb-16 08:18N 29°44' W 095°09'0 0.0
2018-Feb-16 07:57N 29°44' W 095°09'0 0.0
2018-Feb-16 07:26N 29°44' W 095°09'0 0.0
2018-Feb-16 06:58N 29°44' W 095°09'0 0.0
2018-Feb-16 06:28N 29°44' W 095°09'0 0.1
2018-Feb-16 05:33N 29°44' W 095°10'0 0.1
2018-Feb-16 04:54N 29°44' W 095°10'0 0.3
2018-Feb-16 04:30N 29°44' W 095°09'0 0.0
2018-Feb-16 04:00N 29°44' W 095°09'0 0.0
2018-Feb-16 03:30N 29°44' W 095°09'0 0.0
2018-Feb-16 03:00N 29°44' W 095°09'0 0.0
2018-Feb-16 02:29N 29°44' W 095°09'0 0.0
2018-Feb-16 01:50N 29°44' W 095°09'0 0.0
2018-Feb-16 01:29N 29°44' W 095°09'0 0.0
2018-Feb-16 00:57N 29°44' W 095°09'0 0.0
2018-Feb-16 00:29N 29°44' W 095°09'0 0.0
2018-Feb-15 15:02N 29°44' W 095°09'0 0.0
2018-Feb-15 14:45N 29°44' W 095°09'0 0.0
2018-Feb-15 14:24N 29°44' W 095°09'0 0.0
2018-Feb-15 13:59N 29°44' W 095°09'0 0.0
2018-Feb-15 13:09N 29°44' W 095°09'0 0.0
2018-Feb-15 12:50N 29°44' W 095°09'0 0.0
2018-Feb-15 10:14N 29°44' W 095°09'0 0.0
2018-Feb-15 09:50N 29°44' W 095°09'0 0.0
2018-Feb-15 09:29N 29°44' W 095°09'0 0.0
2018-Feb-15 09:00N 29°44' W 095°09'0 0.0
2018-Feb-15 08:30N 29°44' W 095°09'0 0.0
2018-Feb-15 07:59N 29°44' W 095°09'0 0.0
2018-Feb-15 07:30N 29°44' W 095°09'0 0.0
2018-Feb-15 06:59N 29°44' W 095°09'0 0.0
2018-Feb-15 06:30N 29°44' W 095°09'0 0.0
2018-Feb-15 06:00N 29°44' W 095°09'0 0.0
2018-Feb-15 05:30N 29°44' W 095°09'0 0.0
2018-Feb-15 05:00N 29°44' W 095°09'0 0.0
2018-Feb-15 04:29N 29°44' W 095°09'0 0.0
2018-Feb-15 03:59N 29°44' W 095°09'0 0.0
2018-Feb-15 03:30N 29°44' W 095°09'0 0.0
2018-Feb-15 02:40N 29°44' W 095°09'0 0.6
2018-Feb-15 02:22N 29°44' W 095°10'5 0.6
2018-Feb-14 18:55N 29°46' W 095°05'0 0.7
2018-Feb-14 18:30N 29°47' W 095°05'0 0.0
2018-Feb-14 17:59N 29°47' W 095°05'5 3.1
2018-Feb-14 16:26N 29°44' W 095°09'0 0.0
2018-Feb-14 15:16N 29°44' W 095°09'0 0.0
2018-Feb-14 14:45N 29°44' W 095°09'0 0.0
2018-Feb-14 14:12N 29°44' W 095°09'0 0.0
2018-Feb-14 14:00N 29°44' W 095°09'  
Track history (hours):
 
Tides and Currents Weather Stations Pressure Air Temp Water Temp Dewpoint Dewpoint Depression Visibility Wind Speed Wind Dir Waves Ship Positions

MiSS Kayla

Owner: Crosby Marine Transportation LLC, Golden Meadow, LA. More information available from US FCC via Universal Licensing System and Coast Guard Vessel Documentation Center.

Last reported at 2018-Feb-18 19:30 UTC. Time now 2018-Feb-19 00:12 UTC.
Position N 29°46' W 095°05'.

Length 20 m; draft 8 m.

Type: Towing. MMSI: 367468580.

Date/timePositionNaut miles runAvg speedWind from/ knotsBaromVisibWave heightAir tempDewpointWater temp
2018-Feb-18 19:30N 29°46' W 095°05'4 1.4
2018-Feb-18 16:27N 29°44' W 095°09'0 0.0
2018-Feb-18 15:59N 29°44' W 095°09'0 0.0
2018-Feb-18 04:10N 29°44' W 095°10'0 0.1
2018-Feb-18 03:41N 29°44' W 095°10'1 0.1
2018-Feb-17 22:48N 29°44' W 095°09'4 2.2
2018-Feb-17 21:03N 29°46' W 095°05'0 4.3
2018-Feb-17 20:59N 29°46' W 095°05'2 4.8
2018-Feb-17 20:29N 29°44' W 095°07'2 0.2
2018-Feb-17 08:16N 29°44' W 095°10'0 0.0
2018-Feb-17 07:51N 29°44' W 095°10'5 0.8
2018-Feb-17 01:41N 29°46' W 095°05'1 1.0
2018-Feb-17 01:09N 29°46' W 095°05'1 5.0
2018-Feb-17 00:58N 29°45' W 095°06'2 0.1
2018-Feb-16 10:40N 29°47' W 095°05'5 2.5
2018-Feb-16 08:41N 29°44' W 095°09'0 0.0
2018-Feb-16 08:18N 29°44' W 095°09'0 0.0
2018-Feb-16 07:57N 29°44' W 095°09'0 0.0
2018-Feb-16 07:26N 29°44' W 095°09'0 0.0
2018-Feb-16 06:58N 29°44' W 095°09'0 0.0
2018-Feb-16 06:28N 29°44' W 095°09'0 0.1
2018-Feb-16 05:33N 29°44' W 095°10'0 0.1
2018-Feb-16 04:54N 29°44' W 095°10'0 0.3
2018-Feb-16 04:30N 29°44' W 095°09'0 0.0
2018-Feb-16 04:00N 29°44' W 095°09'0 0.0
2018-Feb-16 03:30N 29°44' W 095°09'0 0.0
2018-Feb-16 03:00N 29°44' W 095°09'0 0.0
2018-Feb-16 02:29N 29°44' W 095°09'0 0.0
2018-Feb-16 01:50N 29°44' W 095°09'0 0.0
2018-Feb-16 01:29N 29°44' W 095°09'0 0.0
2018-Feb-16 00:57N 29°44' W 095°09'0 0.0
2018-Feb-16 00:29N 29°44' W 095°09'0 0.0
2018-Feb-15 15:02N 29°44' W 095°09'0 0.0
2018-Feb-15 14:45N 29°44' W 095°09'0 0.0
2018-Feb-15 14:24N 29°44' W 095°09'0 0.0
2018-Feb-15 13:59N 29°44' W 095°09'0 0.0
2018-Feb-15 13:09N 29°44' W 095°09'0 0.0
2018-Feb-15 12:50N 29°44' W 095°09'0 0.0
2018-Feb-15 10:14N 29°44' W 095°09'0 0.0
2018-Feb-15 09:50N 29°44' W 095°09'0 0.0
2018-Feb-15 09:29N 29°44' W 095°09'0 0.0
2018-Feb-15 09:00N 29°44' W 095°09'0 0.0
2018-Feb-15 08:30N 29°44' W 095°09'0 0.0
2018-Feb-15 07:59N 29°44' W 095°09'0 0.0
2018-Feb-15 07:30N 29°44' W 095°09'0 0.0
2018-Feb-15 06:59N 29°44' W 095°09'0 0.0
2018-Feb-15 06:30N 29°44' W 095°09'0 0.0
2018-Feb-15 06:00N 29°44' W 095°09'0 0.0
2018-Feb-15 05:30N 29°44' W 095°09'0 0.0
2018-Feb-15 05:00N 29°44' W 095°09'0 0.0
2018-Feb-15 04:29N 29°44' W 095°09'0 0.0
2018-Feb-15 03:59N 29°44' W 095°09'0 0.0
2018-Feb-15 03:30N 29°44' W 095°09'0 0.0
2018-Feb-15 02:40N 29°44' W 095°09'0 0.6
2018-Feb-15 02:22N 29°44' W 095°10'5 0.6
2018-Feb-14 18:55N 29°46' W 095°05'0 0.7
2018-Feb-14 18:30N 29°47' W 095°05'0 0.0
2018-Feb-14 17:59N 29°47' W 095°05'5 3.1
2018-Feb-14 16:26N 29°44' W 095°09'0 0.0
2018-Feb-14 15:16N 29°44' W 095°09'0 0.0
2018-Feb-14 14:45N 29°44' W 095°09'0 0.0
2018-Feb-14 14:12N 29°44' W 095°09'0 0.0
2018-Feb-14 14:00N 29°44' W 095°09'  

Dump ship's entire track history